Doris Moran — WRU2125 — position and weather

sailwx.info

Track history (hours):
 
Tides and Currents Weather Stations Pressure Air Temp Water Temp Dewpoint Dewpoint Depression Visibility Wind Speed Wind Dir Waves Ship Positions

Doris Moran

Owner: MORAN TOWING CORPORATION, New Canaan, CT. More information available from US FCC via Universal Licensing System and Coast Guard Vessel Documentation Center.

Last reported at 2016-May-25 10:25 UTC. Time now 2016-May-26 16:33 UTC.
Position N 40°46' W 074°00'.

Length 36 m; draft 5.3 m.

Type: Towing. MMSI: 366939790.

Date/timePositionNaut miles runAvg speedWind from/ knotsBaromVisibWave heightAir tempDewpointWater temp
2016-May-25 10:25N 40°46' W 074°00'7 8.2
2016-May-25 09:34N 40°39' W 074°03'2 1.9
2016-May-25 08:31N 40°39' W 074°06'0 0.0
2016-May-25 07:33N 40°39' W 074°06'0 0.0
2016-May-25 06:33N 40°39' W 074°06'0 0.0
2016-May-25 05:33N 40°39' W 074°06'0 0.0
2016-May-25 04:34N 40°39' W 074°06'0 0.0
2016-May-25 03:33N 40°39' W 074°06'0 0.0
2016-May-25 02:33N 40°39' W 074°06'3 3.4
2016-May-25 01:33N 40°36' W 074°03'2 1.5
2016-May-25 00:32N 40°35' W 074°01'0 0.1
2016-May-24 23:33N 40°35' W 074°01'0 0.1
2016-May-24 22:32N 40°35' W 074°01'0 0.1
2016-May-24 21:33N 40°35' W 074°01'3 2.8
2016-May-24 20:33N 40°32' W 074°01'5 5.0
2016-May-24 19:31N 40°30' W 073°56'39 7.7
2016-May-24 14:28N 39°51' W 073°58'7 8.2
2016-May-24 13:33N 39°43' W 073°60'8 8.1
2016-May-24 12:33N 39°36' W 074°04'8 8.2
2016-May-24 11:34N 39°29' W 074°09'19 8.3
2016-May-24 09:19N 39°13' W 074°22'6 8.2
2016-May-24 08:33N 39°09' W 074°28'8 8.2
2016-May-24 07:33N 39°03' W 074°36'8 8.2
2016-May-24 06:33N 38°57' W 074°43'17 5.6
2016-May-24 03:32N 38°55' W 075°04'5 4.5
2016-May-24 02:21N 38°59' W 075°08'7 9.1
2016-May-24 01:33N 39°06' W 075°12'9 8.8
2016-May-24 00:33N 39°13' W 075°18'1010.2
2016-May-23 23:33N 39°21' W 075°26'1110.8
2016-May-23 22:33N 39°30' W 075°33'6 5.7
2016-May-23 21:33N 39°33' W 075°40'8 8.1
2016-May-23 20:33N 39°32' W 075°50'8 8.3
2016-May-23 19:33N 39°27' W 075°59'9 8.5
2016-May-23 18:33N 39°22' W 076°08'10 8.3
2016-May-23 17:19N 39°13' W 076°15'6 8.0
2016-May-23 16:33N 39°09' W 076°21'6 6.4
2016-May-23 15:33N 39°13' W 076°28'0 0.0
2016-May-23 14:21N 39°13' W 076°28'0 0.0
2016-May-23 13:34N 39°13' W 076°28'0 0.0
2016-May-23 12:34N 39°13' W 076°28'0 0.0
2016-May-23 11:33N 39°13' W 076°28'0 0.0
2016-May-23 10:33N 39°13' W 076°28'0 0.0
2016-May-23 09:34N 39°13' W 076°28'0 0.0
2016-May-23 08:25N 39°13' W 076°28'0 0.0
2016-May-23 07:19N 39°13' W 076°28'0 0.0
2016-May-23 06:19N 39°13' W 076°28'0 0.0
2016-May-23 05:31N 39°13' W 076°28'0 0.0
2016-May-22 16:32N 39°13' W 076°28'0 0.0
2016-May-22 15:23N 39°13' W 076°28'0 0.0
2016-May-21 22:30N 39°12' W 076°28'4 4.1
2016-May-21 21:33N 39°10' W 076°24'9 4.4
2016-May-21 19:33N 39°15' W 076°14'9 8.8
2016-May-21 18:33N 39°22' W 076°08'1110.9
2016-May-21 17:33N 39°29' W 075°57'10 9.7
2016-May-21 16:33N 39°32' W 075°45'8 8.2
2016-May-21 15:33N 39°34' W 075°35'7 7.4
2016-May-21 14:33N 39°26' W 075°32'1211.8
2016-May-21 13:33N 39°18' W 075°22'1211.5
2016-May-21 12:33N 39°08' W 075°14'9 9.5
2016-May-21 11:33N 38°59' W 075°09'4 3.9
2016-May-21 10:33N 38°56' W 075°06'10 9.6
2016-May-21 09:34N 38°48' W 074°60'1110.6
2016-May-21 08:33N 38°53' W 074°47'1110.7
2016-May-21 07:33N 39°01' W 074°38'1110.7
2016-May-21 06:33N 39°08' W 074°28'1110.7
2016-May-21 05:33N 39°16' W 074°19'1110.7
2016-May-21 04:33N 39°25' W 074°11'1110.8
2016-May-21 03:33N 39°34' W 074°03'1110.6
2016-May-21 02:33N 39°44' W 073°59'1110.6
2016-May-21 01:33N 39°55' W 073°57'1110.6
2016-May-21 00:33N 40°05' W 073°55'1110.5
2016-May-20 23:33N 40°16' W 073°54'1110.4
2016-May-20 22:30N 40°27' W 073°54'7 7.0
2016-May-20 21:30N 40°31' W 074°00'7 7.0
2016-May-20 20:33N 40°38' W 074°03'2 2.2
2016-May-20 19:33N 40°39' W 074°06'0 0.0
2016-May-20 18:33N 40°39' W 074°06'0 0.0
2016-May-20 17:33N 40°39' W 074°06'2 1.6
2016-May-20 16:32N 40°38' W 074°08'2 0.8
2016-May-20 14:33N 40°39' W 074°06'0 0.1
2016-May-20 13:32N 40°39' W 074°06'1 0.8
2016-May-20 12:33N 40°39' W 074°05'4 3.6
2016-May-20 11:33N 40°40' W 074°00'0 0.0
2016-May-20 10:33N 40°40' W 074°00'0 0.0
2016-May-20 09:33N 40°40' W 074°00'0 0.0
2016-May-20 08:33N 40°40' W 074°00'0 0.0
2016-May-20 07:33N 40°40' W 074°00'0 0.0
2016-May-20 06:33N 40°40' W 074°00'0 0.0
2016-May-20 05:33N 40°40' W 074°00'0 0.0
2016-May-20 04:33N 40°40' W 074°00'0 0.0
2016-May-20 03:33N 40°40' W 074°00'0 0.0
2016-May-20 02:33N 40°40' W 074°00'0 0.0
2016-May-20 01:33N 40°40' W 074°00'0 0.0
2016-May-20 00:33N 40°40' W 074°00'0 0.0
2016-May-19 23:33N 40°40' W 074°00'0 0.0
2016-May-19 22:33N 40°40' W 074°00'0 0.0
2016-May-19 21:33N 40°40' W 074°00'0 0.0
2016-May-19 20:30N 40°40' W 074°00'0 0.0
2016-May-19 19:30N 40°40' W 074°00'0 0.0
2016-May-19 18:33N 40°40' W 074°00'0 0.0
2016-May-19 17:33N 40°40' W 074°00'0 0.0
2016-May-19 16:33N 40°40' W 074°00'0 0.0
2016-May-19 15:33N 40°40' W 074°00'0 0.0
2016-May-19 14:33N 40°40' W 074°00'0 0.0
2016-May-19 13:33N 40°40' W 074°00'0 0.0
2016-May-19 12:33N 40°40' W 074°00'0 0.0
2016-May-19 11:33N 40°40' W 074°00'1 1.3
2016-May-19 10:34N 40°39' W 074°02'1 1.0
2016-May-19 09:32N 40°39' W 074°03'0 0.1
2016-May-19 08:32N 40°39' W 074°03'0 0.0
2016-May-19 07:32N 40°39' W 074°03'0 0.0
2016-May-19 06:32N 40°39' W 074°03'0 0.0
2016-May-19 05:32N 40°39' W 074°03'0 0.0
2016-May-19 04:29N 40°39' W 074°03'0 0.0
2016-May-19 03:32N 40°39' W 074°03'0 0.1
2016-May-19 02:32N 40°39' W 074°03'0 0.1
2016-May-19 01:34N 40°39' W 074°03'1 0.8
2016-May-19 00:33N 40°40' W 074°03'  
2016-May-15 21:18N 40°48' W 073°59'912.1
2016-May-15 20:33N 40°39' W 074°03'2 2.0
2016-May-15 19:34N 40°40' W 074°00'0 0.0
2016-May-15 18:33N 40°40' W 074°00'  
Track history (hours):
 
Tides and Currents Weather Stations Pressure Air Temp Water Temp Dewpoint Dewpoint Depression Visibility Wind Speed Wind Dir Waves Ship Positions

Doris Moran

Owner: MORAN TOWING CORPORATION, New Canaan, CT. More information available from US FCC via Universal Licensing System and Coast Guard Vessel Documentation Center.

Last reported at 2016-May-25 10:25 UTC. Time now 2016-May-26 16:33 UTC.
Position N 40°46' W 074°00'.

Length 36 m; draft 5.3 m.

Type: Towing. MMSI: 366939790.

Date/timePositionNaut miles runAvg speedWind from/ knotsBaromVisibWave heightAir tempDewpointWater temp
2016-May-25 10:25N 40°46' W 074°00'7 8.2
2016-May-25 09:34N 40°39' W 074°03'2 1.9
2016-May-25 08:31N 40°39' W 074°06'0 0.0
2016-May-25 07:33N 40°39' W 074°06'0 0.0
2016-May-25 06:33N 40°39' W 074°06'0 0.0
2016-May-25 05:33N 40°39' W 074°06'0 0.0
2016-May-25 04:34N 40°39' W 074°06'0 0.0
2016-May-25 03:33N 40°39' W 074°06'0 0.0
2016-May-25 02:33N 40°39' W 074°06'3 3.4
2016-May-25 01:33N 40°36' W 074°03'2 1.5
2016-May-25 00:32N 40°35' W 074°01'0 0.1
2016-May-24 23:33N 40°35' W 074°01'0 0.1
2016-May-24 22:32N 40°35' W 074°01'0 0.1
2016-May-24 21:33N 40°35' W 074°01'3 2.8
2016-May-24 20:33N 40°32' W 074°01'5 5.0
2016-May-24 19:31N 40°30' W 073°56'39 7.7
2016-May-24 14:28N 39°51' W 073°58'7 8.2
2016-May-24 13:33N 39°43' W 073°60'8 8.1
2016-May-24 12:33N 39°36' W 074°04'8 8.2
2016-May-24 11:34N 39°29' W 074°09'19 8.3
2016-May-24 09:19N 39°13' W 074°22'6 8.2
2016-May-24 08:33N 39°09' W 074°28'8 8.2
2016-May-24 07:33N 39°03' W 074°36'8 8.2
2016-May-24 06:33N 38°57' W 074°43'17 5.6
2016-May-24 03:32N 38°55' W 075°04'5 4.5
2016-May-24 02:21N 38°59' W 075°08'7 9.1
2016-May-24 01:33N 39°06' W 075°12'9 8.8
2016-May-24 00:33N 39°13' W 075°18'1010.2
2016-May-23 23:33N 39°21' W 075°26'1110.8
2016-May-23 22:33N 39°30' W 075°33'6 5.7
2016-May-23 21:33N 39°33' W 075°40'8 8.1
2016-May-23 20:33N 39°32' W 075°50'8 8.3
2016-May-23 19:33N 39°27' W 075°59'9 8.5
2016-May-23 18:33N 39°22' W 076°08'10 8.3
2016-May-23 17:19N 39°13' W 076°15'6 8.0
2016-May-23 16:33N 39°09' W 076°21'6 6.4
2016-May-23 15:33N 39°13' W 076°28'0 0.0
2016-May-23 14:21N 39°13' W 076°28'0 0.0
2016-May-23 13:34N 39°13' W 076°28'0 0.0
2016-May-23 12:34N 39°13' W 076°28'0 0.0
2016-May-23 11:33N 39°13' W 076°28'0 0.0
2016-May-23 10:33N 39°13' W 076°28'0 0.0
2016-May-23 09:34N 39°13' W 076°28'0 0.0
2016-May-23 08:25N 39°13' W 076°28'0 0.0
2016-May-23 07:19N 39°13' W 076°28'0 0.0
2016-May-23 06:19N 39°13' W 076°28'0 0.0
2016-May-23 05:31N 39°13' W 076°28'0 0.0
2016-May-22 16:32N 39°13' W 076°28'0 0.0
2016-May-22 15:23N 39°13' W 076°28'0 0.0
2016-May-21 22:30N 39°12' W 076°28'4 4.1
2016-May-21 21:33N 39°10' W 076°24'9 4.4
2016-May-21 19:33N 39°15' W 076°14'9 8.8
2016-May-21 18:33N 39°22' W 076°08'1110.9
2016-May-21 17:33N 39°29' W 075°57'10 9.7
2016-May-21 16:33N 39°32' W 075°45'8 8.2
2016-May-21 15:33N 39°34' W 075°35'7 7.4
2016-May-21 14:33N 39°26' W 075°32'1211.8
2016-May-21 13:33N 39°18' W 075°22'1211.5
2016-May-21 12:33N 39°08' W 075°14'9 9.5
2016-May-21 11:33N 38°59' W 075°09'4 3.9
2016-May-21 10:33N 38°56' W 075°06'10 9.6
2016-May-21 09:34N 38°48' W 074°60'1110.6
2016-May-21 08:33N 38°53' W 074°47'1110.7
2016-May-21 07:33N 39°01' W 074°38'1110.7
2016-May-21 06:33N 39°08' W 074°28'1110.7
2016-May-21 05:33N 39°16' W 074°19'1110.7
2016-May-21 04:33N 39°25' W 074°11'1110.8
2016-May-21 03:33N 39°34' W 074°03'1110.6
2016-May-21 02:33N 39°44' W 073°59'1110.6
2016-May-21 01:33N 39°55' W 073°57'1110.6
2016-May-21 00:33N 40°05' W 073°55'1110.5
2016-May-20 23:33N 40°16' W 073°54'1110.4
2016-May-20 22:30N 40°27' W 073°54'7 7.0
2016-May-20 21:30N 40°31' W 074°00'7 7.0
2016-May-20 20:33N 40°38' W 074°03'2 2.2
2016-May-20 19:33N 40°39' W 074°06'0 0.0
2016-May-20 18:33N 40°39' W 074°06'0 0.0
2016-May-20 17:33N 40°39' W 074°06'2 1.6
2016-May-20 16:32N 40°38' W 074°08'2 0.8
2016-May-20 14:33N 40°39' W 074°06'0 0.1
2016-May-20 13:32N 40°39' W 074°06'1 0.8
2016-May-20 12:33N 40°39' W 074°05'4 3.6
2016-May-20 11:33N 40°40' W 074°00'0 0.0
2016-May-20 10:33N 40°40' W 074°00'0 0.0
2016-May-20 09:33N 40°40' W 074°00'0 0.0
2016-May-20 08:33N 40°40' W 074°00'0 0.0
2016-May-20 07:33N 40°40' W 074°00'0 0.0
2016-May-20 06:33N 40°40' W 074°00'0 0.0
2016-May-20 05:33N 40°40' W 074°00'0 0.0
2016-May-20 04:33N 40°40' W 074°00'0 0.0
2016-May-20 03:33N 40°40' W 074°00'0 0.0
2016-May-20 02:33N 40°40' W 074°00'0 0.0
2016-May-20 01:33N 40°40' W 074°00'0 0.0
2016-May-20 00:33N 40°40' W 074°00'0 0.0
2016-May-19 23:33N 40°40' W 074°00'0 0.0
2016-May-19 22:33N 40°40' W 074°00'0 0.0
2016-May-19 21:33N 40°40' W 074°00'0 0.0
2016-May-19 20:30N 40°40' W 074°00'0 0.0
2016-May-19 19:30N 40°40' W 074°00'0 0.0
2016-May-19 18:33N 40°40' W 074°00'0 0.0
2016-May-19 17:33N 40°40' W 074°00'0 0.0
2016-May-19 16:33N 40°40' W 074°00'0 0.0
2016-May-19 15:33N 40°40' W 074°00'0 0.0
2016-May-19 14:33N 40°40' W 074°00'0 0.0
2016-May-19 13:33N 40°40' W 074°00'0 0.0
2016-May-19 12:33N 40°40' W 074°00'0 0.0
2016-May-19 11:33N 40°40' W 074°00'1 1.3
2016-May-19 10:34N 40°39' W 074°02'1 1.0
2016-May-19 09:32N 40°39' W 074°03'0 0.1
2016-May-19 08:32N 40°39' W 074°03'0 0.0
2016-May-19 07:32N 40°39' W 074°03'0 0.0
2016-May-19 06:32N 40°39' W 074°03'0 0.0
2016-May-19 05:32N 40°39' W 074°03'0 0.0
2016-May-19 04:29N 40°39' W 074°03'0 0.0
2016-May-19 03:32N 40°39' W 074°03'0 0.1
2016-May-19 02:32N 40°39' W 074°03'0 0.1
2016-May-19 01:34N 40°39' W 074°03'1 0.8
2016-May-19 00:33N 40°40' W 074°03'  
2016-May-15 21:18N 40°48' W 073°59'912.1
2016-May-15 20:33N 40°39' W 074°03'2 2.0
2016-May-15 19:34N 40°40' W 074°00'0 0.0
2016-May-15 18:33N 40°40' W 074°00'  

Dump ship's entire track history